Terminal Aerodrome Forecast
Issued by NWS Cleveland, OH

Home | Current Version | Previous Version | Graphics & Text | Print | Product List | Glossary On
Versions: 1 2 3 4 5 6 7 8 9 10 11 12 13 14 15 16 17 18
000
FTUS41 KCLE 170800 AAB
TAFMFD
TAF AMD
KMFD 170858Z 1709/1806 VRB03KT 6SM BR SKC
      TEMPO 1709/1710 5SM BR
     FM171000 VRB03KT 4SM BR BKN040
      TEMPO 1710/1713 1SM BR
     FM171400 27006KT P6SM SKC
     FM180200 26003KT P6SM SKC=

USA.gov is the U.S. government's official web portal to all federal, state and local government web resources and services.